Time;durP1;ratioP1;P1;durP2;ratioP2;P2;SDS_P1;SDS_P2;PMS_P1;PMS_P2;Temp;Humidity;BMP_temperature;BMP_pressure;BME280_temperature;BME280_humidity;BME280_pressure;Samples;Min_cycle;Max_cycle;Signal;HPM_P1;HPM_P2
2023/11/28 00:00:13;;;;;;;7.90;7.80;;;1.30;99.90;;;;;;5080794;28;20528;-72
2023/11/28 00:02:42;;;;;;;7.83;7.73;;;1.30;99.90;;;;;;5078321;28;20472;-72
2023/11/28 00:05:09;;;;;;;7.97;7.87;;;1.30;99.90;;;;;;5076751;28;20466;-72
2023/11/28 00:07:37;;;;;;;7.67;7.57;;;1.30;99.90;;;;;;5079128;28;20490;-71
2023/11/28 00:10:04;;;;;;;6.10;6.00;;;1.30;99.90;;;;;;5080527;28;20465;-73
2023/11/28 00:12:31;;;;;;;6.30;6.20;;;1.30;99.90;;;;;;5076737;28;20451;-73
2023/11/28 00:14:58;;;;;;;6.20;6.10;;;1.30;99.90;;;;;;5079012;28;20463;-73
2023/11/28 00:17:26;;;;;;;6.70;6.60;;;1.30;99.90;;;;;;5088695;28;20951;-72
2023/11/28 00:19:54;;;;;;;7.50;7.40;;;1.30;99.90;;;;;;5080945;28;20486;-73
2023/11/28 00:22:20;;;;;;;7.23;7.13;;;1.30;99.90;;;;;;5076262;28;20471;-73
2023/11/28 00:24:47;;;;;;;7.93;7.83;;;1.20;99.90;;;;;;5080106;28;20490;-72
2023/11/28 00:27:15;;;;;;;7.80;7.70;;;1.20;99.90;;;;;;5074489;28;20491;-71
2023/11/28 00:29:42;;;;;;;7.70;7.60;;;1.30;99.90;;;;;;5086410;28;20507;-72
2023/11/28 00:32:09;;;;;;;8.00;7.90;;;1.30;99.90;;;;;;5088348;28;20467;-72
2023/11/28 00:34:37;;;;;;;7.37;7.27;;;1.30;99.90;;;;;;5088682;28;20457;-73
2023/11/28 00:37:05;;;;;;;7.50;7.40;;;1.30;99.90;;;;;;5073154;28;20471;-71
2023/11/28 00:39:33;;;;;;;7.60;7.50;;;1.20;99.90;;;;;;5082605;28;20470;-71
2023/11/28 00:42:03;;;;;;;7.53;7.43;;;1.20;99.90;;;;;;5088032;28;20949;-72
2023/11/28 00:44:30;;;;;;;8.27;8.17;;;1.20;99.90;;;;;;5091982;28;20775;-72
2023/11/28 00:46:58;;;;;;;7.90;7.80;;;1.30;99.90;;;;;;5086881;28;20486;-71
2023/11/28 00:49:25;;;;;;;7.57;7.47;;;1.30;99.90;;;;;;5087261;28;20490;-73
2023/11/28 00:51:53;;;;;;;7.53;7.43;;;1.20;99.90;;;;;;5091327;28;20965;-73
2023/11/28 00:54:22;;;;;;;7.43;7.33;;;1.20;99.90;;;;;;5083132;28;20866;-72
2023/11/28 00:56:50;;;;;;;7.63;7.53;;;1.20;99.90;;;;;;5088115;28;20553;-73
2023/11/28 00:59:16;;;;;;;7.23;7.13;;;1.20;99.90;;;;;;5088242;28;20465;-74
2023/11/28 01:01:44;;;;;;;7.60;7.50;;;1.30;99.90;;;;;;5079280;28;20466;-72
2023/11/28 01:04:11;;;;;;;7.33;7.23;;;1.30;99.90;;;;;;5091525;28;20458;-72
2023/11/28 01:06:38;;;;;;;7.00;6.90;;;1.40;99.90;;;;;;5091475;28;20494;-72
2023/11/28 01:09:06;;;;;;;7.53;7.43;;;1.50;99.90;;;;;;5087282;28;20835;-72
2023/11/28 01:11:34;;;;;;;7.70;7.60;;;1.50;99.90;;;;;;5085525;28;20562;-72
2023/11/28 01:14:01;;;;;;;7.80;7.70;;;1.50;99.90;;;;;;5074188;28;20465;-72
2023/11/28 01:16:28;;;;;;;7.43;7.33;;;1.50;99.90;;;;;;5090124;28;20557;-71
2023/11/28 01:18:55;;;;;;;7.60;7.50;;;1.50;99.90;;;;;;5072655;28;20467;-73
2023/11/28 01:21:22;;;;;;;7.23;7.13;;;1.50;99.90;;;;;;5084480;28;20471;-72
2023/11/28 01:23:50;;;;;;;7.63;7.53;;;1.50;99.90;;;;;;5088968;28;20479;-72
2023/11/28 01:26:17;;;;;;;7.43;7.33;;;1.60;99.90;;;;;;5078887;28;20508;-71
2023/11/28 01:28:45;;;;;;;7.70;7.60;;;1.60;99.90;;;;;;5084457;28;20459;-73
2023/11/28 01:31:12;;;;;;;8.63;8.53;;;1.60;99.90;;;;;;5084359;28;20962;-72
2023/11/28 01:33:39;;;;;;;7.33;7.23;;;1.70;99.90;;;;;;5077510;28;20584;-73
2023/11/28 01:36:07;;;;;;;8.00;7.90;;;1.60;99.90;;;;;;5085685;28;20883;-72
2023/11/28 01:38:36;;;;;;;7.80;7.70;;;1.60;99.90;;;;;;5092184;28;20808;-71
2023/11/28 01:41:02;;;;;;;8.40;8.30;;;1.60;99.90;;;;;;5080538;28;21046;-72
2023/11/28 01:43:30;;;;;;;8.50;8.40;;;1.70;99.90;;;;;;5079368;28;20554;-71
2023/11/28 01:45:59;;;;;;;8.20;8.10;;;1.70;99.90;;;;;;5082854;28;20458;-72
2023/11/28 01:48:26;;;;;;;8.07;7.97;;;1.70;99.90;;;;;;5086202;28;21006;-72
2023/11/28 01:50:54;;;;;;;7.97;7.87;;;1.70;99.90;;;;;;5080123;28;20547;-71
2023/11/28 01:53:22;;;;;;;7.73;7.63;;;1.70;99.90;;;;;;5090384;28;20961;-71
2023/11/28 01:55:49;;;;;;;7.83;7.73;;;1.70;99.90;;;;;;5088916;28;20466;-71
2023/11/28 01:58:16;;;;;;;8.10;8.00;;;1.70;99.90;;;;;;5074250;28;20490;-71
2023/11/28 02:00:45;;;;;;;8.90;8.80;;;1.80;99.90;;;;;;5083398;28;20471;-72
2023/11/28 02:03:15;;;;;;;8.77;8.67;;;1.80;99.90;;;;;;5083547;28;20944;-72
2023/11/28 02:05:41;;;;;;;9.10;8.90;;;1.80;99.90;;;;;;5083294;28;20458;-71
2023/11/28 02:08:10;;;;;;;8.90;8.73;;;1.80;99.90;;;;;;5093777;28;20822;-70
2023/11/28 02:10:39;;;;;;;8.50;8.40;;;1.70;99.90;;;;;;5075872;28;20451;-71
2023/11/28 02:13:06;;;;;;;8.43;8.33;;;1.70;99.90;;;;;;5081684;28;20454;-71
2023/11/28 02:15:41;;;;;;;8.87;8.77;;;1.70;99.90;;;;;;5085321;28;20941;-70
2023/11/28 02:18:09;;;;;;;9.03;8.87;;;1.70;99.90;;;;;;5082826;28;20497;-71
2023/11/28 02:20:37;;;;;;;9.00;8.83;;;1.70;99.90;;;;;;5088696;28;20474;-72
2023/11/28 02:23:05;;;;;;;8.70;8.60;;;1.70;99.90;;;;;;5092402;28;20490;-71
2023/11/28 02:25:40;;;;;;;9.23;9.03;;;1.60;99.90;;;;;;5080800;28;20493;-70
2023/11/28 02:28:08;;;;;;;9.83;9.63;;;1.60;99.90;;;;;;5075983;28;20491;-71
2023/11/28 02:30:36;;;;;;;10.03;9.83;;;1.60;99.90;;;;;;5089163;28;20469;-71
2023/11/28 02:33:03;;;;;;;9.90;9.70;;;1.60;99.90;;;;;;5086122;28;20462;-72
2023/11/28 02:35:29;;;;;;;10.20;10.00;;;1.60;99.90;;;;;;5089770;28;20572;-72
2023/11/28 02:37:56;;;;;;;10.27;10.07;;;1.60;99.90;;;;;;5087219;28;20466;-72
2023/11/28 02:40:23;;;;;;;10.57;10.37;;;1.50;99.90;;;;;;5080268;28;20502;-72
2023/11/28 02:42:51;;;;;;;9.73;9.53;;;1.60;99.90;;;;;;5089982;28;20464;-72
2023/11/28 02:45:19;;;;;;;9.87;9.67;;;1.50;99.90;;;;;;5085543;28;20950;-72
2023/11/28 02:47:45;;;;;;;9.70;9.50;;;1.50;99.90;;;;;;5086082;28;20489;-73
2023/11/28 02:50:13;;;;;;;9.40;9.20;;;1.60;99.90;;;;;;5073755;28;20818;-72
2023/11/28 02:52:40;;;;;;;10.27;10.07;;;1.60;99.90;;;;;;5090114;28;20546;-72
2023/11/28 02:55:08;;;;;;;9.80;9.60;;;1.50;99.90;;;;;;5096075;28;20504;-73
2023/11/28 02:57:35;;;;;;;9.67;9.47;;;1.60;99.90;;;;;;5086468;28;20466;-72
2023/11/28 03:00:04;;;;;;;10.00;9.80;;;1.60;99.90;;;;;;5081092;28;20481;-71
2023/11/28 03:02:34;;;;;;;10.33;10.13;;;1.60;99.90;;;;;;5089793;28;20461;-72
2023/11/28 03:05:01;;;;;;;9.83;9.63;;;1.60;99.90;;;;;;5079478;28;20827;-73
2023/11/28 03:07:28;;;;;;;10.40;10.20;;;1.60;99.90;;;;;;5088187;28;20509;-72
2023/11/28 03:09:54;;;;;;;10.53;10.33;;;1.60;99.90;;;;;;5077674;28;20463;-71
2023/11/28 03:12:22;;;;;;;10.90;10.70;;;1.60;99.90;;;;;;5073976;28;20526;-72
2023/11/28 03:14:48;;;;;;;10.53;10.33;;;1.60;99.90;;;;;;5087532;28;20519;-71
2023/11/28 03:17:15;;;;;;;10.47;10.27;;;1.60;99.90;;;;;;5074308;28;20473;-71
2023/11/28 03:19:44;;;;;;;10.70;10.50;;;1.60;99.90;;;;;;5082505;28;20471;-72
2023/11/28 03:22:10;;;;;;;10.73;10.53;;;1.60;99.90;;;;;;5087477;28;20841;-71
2023/11/28 03:24:37;;;;;;;10.93;10.63;;;1.60;99.90;;;;;;5093131;28;20849;-72
2023/11/28 03:27:07;;;;;;;11.17;10.87;;;1.70;99.90;;;;;;5084502;28;20525;-71
2023/11/28 03:29:34;;;;;;;10.37;10.17;;;1.70;99.90;;;;;;5072945;28;20458;-70
2023/11/28 03:32:02;;;;;;;10.57;10.37;;;1.70;99.90;;;;;;5091132;28;20462;-72
2023/11/28 03:34:29;;;;;;;10.30;10.10;;;1.70;99.90;;;;;;5089039;28;20467;-71
2023/11/28 03:36:58;;;;;;;10.57;10.37;;;1.70;99.90;;;;;;5075289;28;20489;-71
2023/11/28 03:39:25;;;;;;;10.80;10.60;;;1.80;99.90;;;;;;5084673;28;20462;-72
2023/11/28 03:41:52;;;;;;;10.63;10.43;;;1.70;99.90;;;;;;5076962;28;20488;-72
2023/11/28 03:44:19;;;;;;;10.60;10.40;;;1.80;99.90;;;;;;5084686;28;20879;-72
2023/11/28 03:46:46;;;;;;;10.83;10.60;;;1.80;99.90;;;;;;5077690;28;20827;-69
2023/11/28 03:49:13;;;;;;;10.90;10.60;;;1.70;99.90;;;;;;5084344;28;20497;-69
2023/11/28 03:51:41;;;;;;;10.53;10.33;;;1.70;99.90;;;;;;5087084;28;20491;-71
2023/11/28 03:54:09;;;;;;;10.57;10.37;;;1.70;99.90;;;;;;5083279;28;20474;-72
2023/11/28 03:56:36;;;;;;;10.43;10.23;;;1.60;99.90;;;;;;5089558;28;20467;-72
2023/11/28 03:59:03;;;;;;;10.90;10.60;;;1.60;99.90;;;;;;5078646;28;20459;-70
2023/11/28 04:01:32;;;;;;;10.60;10.40;;;1.60;99.90;;;;;;5076094;28;20527;-71
2023/11/28 04:04:00;;;;;;;11.50;11.20;;;1.70;99.90;;;;;;5095562;28;20993;-71
2023/11/28 04:06:26;;;;;;;11.27;10.97;;;1.60;99.90;;;;;;5087781;28;20490;-71
2023/11/28 04:08:53;;;;;;;11.13;10.83;;;1.60;99.90;;;;;;5091235;28;20592;-71
2023/11/28 04:11:22;;;;;;;11.80;11.50;;;1.60;99.90;;;;;;5078221;28;20454;-71
2023/11/28 04:13:50;;;;;;;11.37;11.07;;;1.60;99.90;;;;;;5082337;28;21284;-69
2023/11/28 04:16:17;;;;;;;11.53;11.23;;;1.60;99.90;;;;;;5088631;28;20472;-71
2023/11/28 04:18:47;;;;;;;11.80;11.50;;;1.60;99.90;;;;;;5092010;28;20458;-70
2023/11/28 04:21:15;;;;;;;11.70;11.40;;;1.70;99.90;;;;;;5087174;28;20487;-71
2023/11/28 04:23:44;;;;;;;12.50;12.10;;;1.70;99.90;;;;;;5091765;28;20477;-70
2023/11/28 04:26:12;;;;;;;11.40;11.10;;;1.70;99.90;;;;;;5079418;28;20893;-70
2023/11/28 04:28:40;;;;;;;12.00;11.70;;;1.70;99.90;;;;;;5085733;28;20487;-71
2023/11/28 04:31:07;;;;;;;12.07;11.77;;;1.70;99.90;;;;;;5081332;28;20462;-71
2023/11/28 04:33:34;;;;;;;12.50;12.10;;;1.70;99.90;;;;;;5091297;28;20458;-70
2023/11/28 04:36:00;;;;;;;11.67;11.37;;;1.60;99.90;;;;;;5086912;28;20956;-71
2023/11/28 04:38:28;;;;;;;11.83;11.53;;;1.60;99.90;;;;;;5088359;28;20458;-70
2023/11/28 04:40:54;;;;;;;11.27;10.97;;;1.60;99.90;;;;;;5073151;28;20471;-70
2023/11/28 04:43:21;;;;;;;12.17;11.87;;;1.60;99.90;;;;;;5090842;28;20458;-69
2023/11/28 04:45:49;;;;;;;12.10;11.80;;;1.60;99.90;;;;;;5086106;28;20468;-69
2023/11/28 04:48:16;;;;;;;11.40;11.10;;;1.60;99.90;;;;;;5089997;28;20505;-72
2023/11/28 04:50:43;;;;;;;11.83;11.53;;;1.60;99.90;;;;;;5080399;28;20466;-69
2023/11/28 04:53:10;;;;;;;12.90;12.50;;;1.60;99.90;;;;;;5086601;28;20512;-70
2023/11/28 04:55:36;;;;;;;12.47;12.13;;;1.60;99.90;;;;;;5086186;28;20469;-71
2023/11/28 04:58:03;;;;;;;13.30;12.90;;;1.60;99.90;;;;;;5086504;28;20457;-71
2023/11/28 05:00:30;;;;;;;12.20;11.90;;;1.60;99.90;;;;;;5085533;28;20465;-71
2023/11/28 05:02:58;;;;;;;11.60;11.30;;;1.60;99.90;;;;;;5094546;28;20462;-69
2023/11/28 05:05:25;;;;;;;12.97;12.57;;;1.70;99.90;;;;;;5079364;28;20442;-72
2023/11/28 05:07:52;;;;;;;12.60;12.20;;;1.70;99.90;;;;;;5080611;28;20481;-71
2023/11/28 05:10:19;;;;;;;13.00;12.60;;;1.70;99.90;;;;;;5077727;28;21010;-73
2023/11/28 05:12:46;;;;;;;12.60;12.20;;;1.70;99.90;;;;;;5087887;28;20557;-72
2023/11/28 05:15:13;;;;;;;12.83;12.43;;;1.70;99.90;;;;;;5078522;28;20493;-72
2023/11/28 05:17:40;;;;;;;13.13;12.73;;;1.70;99.90;;;;;;5077698;28;20463;-70
2023/11/28 05:20:10;;;;;;;11.90;11.60;;;1.70;99.90;;;;;;5083943;28;20481;-70
2023/11/28 05:22:36;;;;;;;12.73;12.33;;;1.60;99.90;;;;;;5085065;28;20528;-70
2023/11/28 05:25:03;;;;;;;12.10;11.80;;;1.60;99.90;;;;;;5084810;28;20482;-70
2023/11/28 05:27:30;;;;;;;12.80;12.40;;;1.60;99.90;;;;;;5088123;28;20450;-70
2023/11/28 05:29:57;;;;;;;13.13;12.73;;;1.60;99.90;;;;;;5086638;28;20466;-69
2023/11/28 05:32:24;;;;;;;12.67;12.27;;;1.60;99.90;;;;;;5095201;28;20559;-70
2023/11/28 05:34:52;;;;;;;13.13;12.73;;;1.60;99.90;;;;;;5090215;28;20458;-70
2023/11/28 05:37:23;;;;;;;13.80;13.40;;;1.60;99.90;;;;;;5078742;28;20894;-71
2023/11/28 05:39:50;;;;;;;13.50;13.10;;;1.70;99.90;;;;;;5088919;28;20461;-71
2023/11/28 05:42:18;;;;;;;13.40;13.00;;;1.60;99.90;;;;;;5080136;28;20460;-71
2023/11/28 05:44:45;;;;;;;13.17;12.77;;;1.60;99.90;;;;;;5085771;28;20462;-71
2023/11/28 05:47:12;;;;;;;13.33;12.93;;;1.70;99.90;;;;;;5085915;28;21029;-69
2023/11/28 05:49:39;;;;;;;13.23;12.83;;;1.70;99.90;;;;;;5082748;28;21098;-71
2023/11/28 05:52:06;;;;;;;13.40;13.00;;;1.60;99.90;;;;;;5078689;28;21246;-70
2023/11/28 05:54:35;;;;;;;13.17;12.77;;;1.60;99.90;;;;;;5084787;28;20460;-71
2023/11/28 05:57:03;;;;;;;14.10;13.60;;;1.60;99.90;;;;;;5089979;28;20549;-71
2023/11/28 05:59:30;;;;;;;13.60;13.20;;;1.70;99.90;;;;;;5089139;28;20485;-70
2023/11/28 06:02:00;;;;;;;12.90;12.50;;;1.60;99.90;;;;;;5087133;28;20459;-69
2023/11/28 06:04:27;;;;;;;13.17;12.77;;;1.60;99.90;;;;;;5081772;28;20473;-71
2023/11/28 06:06:54;;;;;;;13.10;12.70;;;1.60;99.90;;;;;;5081101;28;20471;-72
2023/11/28 06:09:20;;;;;;;12.27;11.87;;;1.60;99.90;;;;;;5083969;28;20486;-71
2023/11/28 06:11:49;;;;;;;12.57;12.17;;;1.60;99.90;;;;;;5086206;28;20455;-71
2023/11/28 06:14:16;;;;;;;13.10;12.70;;;1.60;99.90;;;;;;5083714;28;20503;-71
2023/11/28 06:16:43;;;;;;;12.60;12.20;;;1.60;99.90;;;;;;5084689;28;20470;-71
2023/11/28 06:19:10;;;;;;;13.10;12.70;;;1.60;99.90;;;;;;5084997;28;20465;-70
2023/11/28 06:21:37;;;;;;;12.90;12.50;;;1.60;99.90;;;;;;5077687;28;20471;-71
2023/11/28 06:24:05;;;;;;;12.87;12.47;;;1.60;99.90;;;;;;5088147;28;20489;-71
2023/11/28 06:26:32;;;;;;;12.87;12.47;;;1.60;99.90;;;;;;5088268;28;20477;-72
2023/11/28 06:29:00;;;;;;;13.10;12.70;;;1.60;99.90;;;;;;5075424;28;20491;-71
2023/11/28 06:31:26;;;;;;;12.57;12.17;;;1.60;99.90;;;;;;5085874;28;20457;-69
2023/11/28 06:33:53;;;;;;;12.67;12.27;;;1.60;99.90;;;;;;5088834;28;20461;-73
2023/11/28 06:36:21;;;;;;;11.87;11.57;;;1.60;99.90;;;;;;5076600;28;20513;-71
2023/11/28 06:38:49;;;;;;;11.77;11.47;;;1.60;99.90;;;;;;5075094;28;20463;-71
2023/11/28 06:41:16;;;;;;;12.40;12.00;;;1.60;99.90;;;;;;5087409;28;20550;-72
2023/11/28 06:43:43;;;;;;;11.53;11.23;;;1.50;99.90;;;;;;5087438;28;20758;-70
2023/11/28 06:46:13;;;;;;;11.40;11.10;;;1.50;99.90;;;;;;5075400;28;20472;-70
2023/11/28 06:48:40;;;;;;;11.57;11.27;;;1.50;99.90;;;;;;5088474;28;20581;-71
2023/11/28 06:51:08;;;;;;;11.73;11.43;;;1.50;99.90;;;;;;5082797;28;20470;-71
2023/11/28 06:53:34;;;;;;;12.30;11.90;;;1.50;99.90;;;;;;5095828;28;20458;-71
2023/11/28 06:56:02;;;;;;;11.83;11.53;;;1.40;99.90;;;;;;5086393;28;20549;-71
2023/11/28 06:58:29;;;;;;;11.80;11.50;;;1.40;99.90;;;;;;5080281;28;21027;-70
2023/11/28 07:00:56;;;;;;;11.80;11.50;;;1.40;99.90;;;;;;5075935;28;20470;-71
2023/11/28 07:03:26;;;;;;;12.10;11.80;;;1.30;99.90;;;;;;5083000;28;20462;-72
2023/11/28 07:05:55;;;;;;;11.83;11.53;;;1.30;99.90;;;;;;5082630;28;20515;-72
2023/11/28 07:08:22;;;;;;;12.57;12.17;;;1.30;99.90;;;;;;5076689;28;20885;-70
2023/11/28 07:10:49;;;;;;;12.73;12.33;;;1.30;99.90;;;;;;5088596;28;20956;-70
2023/11/28 07:13:16;;;;;;;12.30;11.90;;;1.20;99.90;;;;;;5077690;28;20546;-72
2023/11/28 07:15:43;;;;;;;12.80;12.40;;;1.10;99.90;;;;;;5087181;28;20449;-71
2023/11/28 07:18:15;;;;;;;12.57;12.17;;;1.10;99.90;;;;;;5077886;28;20973;-70
2023/11/28 07:20:43;;;;;;;12.50;12.10;;;1.00;99.90;;;;;;5086591;28;20504;-72
2023/11/28 07:23:10;;;;;;;13.00;12.60;;;1.00;99.90;;;;;;5082464;28;20996;-70
2023/11/28 07:25:37;;;;;;;12.90;12.50;;;0.90;99.90;;;;;;5084473;28;20478;-69
2023/11/28 07:28:05;;;;;;;13.07;12.67;;;1.00;99.90;;;;;;5082480;28;20461;-72
2023/11/28 07:30:32;;;;;;;13.53;13.10;;;1.00;99.90;;;;;;5077965;28;21026;-72
2023/11/28 07:32:59;;;;;;;13.20;12.80;;;1.00;99.90;;;;;;5071033;28;20473;-70
2023/11/28 07:35:26;;;;;;;13.07;12.67;;;1.00;99.90;;;;;;5075798;28;21003;-72
2023/11/28 07:37:54;;;;;;;12.83;12.43;;;0.90;99.90;;;;;;5069302;28;20463;-72
2023/11/28 07:40:24;;;;;;;13.10;12.70;;;0.90;99.90;;;;;;5077540;28;20579;-70
2023/11/28 07:42:51;;;;;;;13.70;13.20;;;0.90;99.90;;;;;;5074828;28;20596;-71
2023/11/28 07:45:18;;;;;;;13.03;12.63;;;0.80;99.90;;;;;;5071617;28;20474;-69
2023/11/28 07:47:44;;;;;;;13.33;12.93;;;0.70;99.90;;;;;;5070411;28;20501;-72
2023/11/28 07:50:11;;;;;;;13.70;13.20;;;0.70;99.90;;;;;;5076906;28;20851;-71
2023/11/28 07:52:38;;;;;;;12.77;12.37;;;0.70;99.90;;;;;;5073538;28;20961;-69
2023/11/28 07:55:08;;;;;;;13.30;12.90;;;0.60;99.90;;;;;;5076296;28;20520;-70
2023/11/28 07:57:35;;;;;;;13.13;12.73;;;0.60;99.90;;;;;;5072964;28;20469;-70
2023/11/28 08:00:04;;;;;;;13.37;12.97;;;0.70;99.90;;;;;;5074039;28;20466;-70
2023/11/28 08:02:31;;;;;;;13.10;12.70;;;0.70;99.90;;;;;;5076480;28;20467;-70
2023/11/28 08:04:58;;;;;;;12.70;12.30;;;0.70;99.90;;;;;;5069627;28;20459;-69
2023/11/28 08:07:25;;;;;;;13.10;12.70;;;0.70;99.90;;;;;;5075986;28;21193;-69
2023/11/28 08:09:52;;;;;;;12.97;12.57;;;0.60;99.90;;;;;;5074055;28;20486;-71
2023/11/28 08:12:21;;;;;;;12.40;12.00;;;0.60;99.90;;;;;;5071208;28;20470;-71
2023/11/28 08:14:48;;;;;;;12.80;12.40;;;0.50;99.90;;;;;;5071495;28;20967;-71
2023/11/28 08:17:15;;;;;;;12.90;12.50;;;0.50;99.90;;;;;;5069830;28;20486;-71
2023/11/28 08:19:42;;;;;;;12.67;12.27;;;0.40;99.90;;;;;;5075543;28;20493;-72
2023/11/28 08:22:09;;;;;;;12.27;11.87;;;0.30;99.90;;;;;;5072027;28;20474;-71
2023/11/28 08:24:36;;;;;;;12.60;12.20;;;0.30;99.90;;;;;;5060253;28;20483;-70
2023/11/28 08:27:05;;;;;;;12.03;11.73;;;0.30;99.90;;;;;;5052185;28;20463;-71
2023/11/28 08:29:33;;;;;;;12.13;11.73;;;0.30;99.90;;;;;;5056330;28;20475;-70
2023/11/28 08:32:00;;;;;;;12.70;12.30;;;0.30;99.90;;;;;;5052809;28;21030;-70
2023/11/28 08:34:27;;;;;;;11.83;11.53;;;0.30;99.90;;;;;;5049748;28;20471;-71
2023/11/28 08:36:54;;;;;;;12.00;11.60;;;0.30;99.90;;;;;;5050775;28;20983;-72
2023/11/28 08:39:21;;;;;;;11.60;11.30;;;0.30;99.90;;;;;;5048680;28;20463;-72
2023/11/28 08:41:48;;;;;;;11.17;10.87;;;0.30;99.90;;;;;;5053782;28;20456;-71
2023/11/28 08:44:15;;;;;;;10.80;10.50;;;0.30;99.90;;;;;;5053604;28;20468;-72
2023/11/28 08:46:43;;;;;;;11.17;10.87;;;0.30;99.90;;;;;;5050740;28;20539;-71
2023/11/28 08:49:09;;;;;;;11.10;10.80;;;0.40;99.90;;;;;;5054697;28;20491;-70
2023/11/28 08:51:36;;;;;;;10.30;10.10;;;0.40;99.90;;;;;;5050962;28;20474;-72
2023/11/28 08:54:03;;;;;;;10.70;10.40;;;0.40;99.90;;;;;;5057469;28;20844;-72
2023/11/28 08:56:30;;;;;;;11.00;10.70;;;0.50;99.90;;;;;;5056706;28;20460;-71
2023/11/28 08:58:57;;;;;;;11.00;10.70;;;0.50;99.90;;;;;;5057484;28;20471;-69
2023/11/28 09:01:24;;;;;;;10.73;10.43;;;0.60;99.90;;;;;;5055231;28;20472;-70
2023/11/28 09:03:52;;;;;;;11.03;10.73;;;0.60;99.90;;;;;;5058258;28;21152;-72
2023/11/28 09:06:19;;;;;;;11.00;10.70;;;0.60;99.90;;;;;;5053525;28;20513;-72
2023/11/28 09:08:46;;;;;;;12.03;11.67;;;0.70;99.90;;;;;;5054315;28;20464;-72
2023/11/28 09:11:14;;;;;;;11.67;11.37;;;0.80;99.90;;;;;;5057422;28;20463;-71
2023/11/28 09:13:41;;;;;;;11.53;11.23;;;1.00;99.90;;;;;;5058928;28;20484;-72
2023/11/28 09:16:11;;;;;;;11.53;11.23;;;1.10;99.90;;;;;;5055828;28;20468;-70
2023/11/28 09:18:38;;;;;;;11.33;11.03;;;1.20;99.90;;;;;;5051382;28;20468;-70
2023/11/28 09:21:07;;;;;;;12.33;11.93;;;1.20;99.90;;;;;;5057852;28;20478;-70
2023/11/28 09:23:34;;;;;;;12.13;11.73;;;1.30;99.90;;;;;;5056847;28;20492;-71
2023/11/28 09:26:01;;;;;;;11.83;11.53;;;1.30;99.90;;;;;;5078602;28;20463;-70
2023/11/28 09:28:28;;;;;;;12.10;11.70;;;1.30;99.90;;;;;;5077019;28;20472;-72
2023/11/28 09:30:55;;;;;;;12.27;11.87;;;1.40;99.90;;;;;;5077129;28;20501;-72
2023/11/28 09:33:22;;;;;;;12.67;12.27;;;1.40;99.90;;;;;;5077426;28;20466;-72
2023/11/28 09:35:49;;;;;;;12.53;12.13;;;1.50;99.90;;;;;;5074495;28;20460;-71
2023/11/28 09:38:17;;;;;;;12.80;12.40;;;1.60;99.90;;;;;;5075483;28;20467;-69
2023/11/28 09:40:45;;;;;;;12.73;12.33;;;1.60;99.90;;;;;;5075621;28;20474;-71
2023/11/28 09:43:12;;;;;;;12.80;12.40;;;1.70;99.90;;;;;;5071559;28;20840;-70
2023/11/28 09:45:41;;;;;;;13.30;12.90;;;1.70;99.90;;;;;;5075145;28;20470;-69
2023/11/28 09:48:11;;;;;;;13.40;13.00;;;1.80;99.90;;;;;;5076072;28;20600;-70
2023/11/28 09:50:39;;;;;;;13.23;12.83;;;1.80;99.90;;;;;;5076104;28;20510;-70
2023/11/28 09:53:06;;;;;;;13.07;12.67;;;1.90;99.90;;;;;;5071432;28;22035;-70
2023/11/28 09:55:36;;;;;;;13.47;13.07;;;2.00;99.90;;;;;;5072182;28;20961;-72
2023/11/28 09:58:05;;;;;;;13.53;13.13;;;2.20;99.90;;;;;;5076613;28;20573;-70
2023/11/28 10:00:34;;;;;;;13.67;13.17;;;2.30;99.90;;;;;;5077156;28;20465;-70
2023/11/28 10:03:02;;;;;;;14.40;13.90;;;2.40;99.90;;;;;;5072952;28;20895;-71
2023/11/28 10:05:30;;;;;;;14.53;14.03;;;2.60;99.90;;;;;;5071379;28;20462;-70
2023/11/28 10:07:57;;;;;;;14.30;13.80;;;2.80;99.90;;;;;;5077237;28;20594;-70
2023/11/28 10:10:25;;;;;;;14.63;14.13;;;2.80;99.90;;;;;;5073691;28;20488;-71
2023/11/28 10:12:54;;;;;;;14.37;13.87;;;2.80;99.90;;;;;;5074133;28;20470;-70
2023/11/28 10:15:21;;;;;;;14.87;14.27;;;2.80;99.90;;;;;;5075697;28;20483;-70
2023/11/28 10:17:49;;;;;;;14.30;13.80;;;2.80;99.90;;;;;;5073946;28;20467;-71
2023/11/28 10:20:17;;;;;;;14.27;13.77;;;2.80;99.90;;;;;;5074270;28;20484;-70
2023/11/28 10:22:51;;;;;;;14.50;14.00;;;2.90;99.90;;;;;;5071384;28;20470;-71
2023/11/28 10:25:19;;;;;;;14.30;13.80;;;2.90;99.90;;;;;;5076981;28;21016;-70
2023/11/28 10:27:47;;;;;;;14.20;13.70;;;3.00;99.90;;;;;;5074459;28;20985;-71
2023/11/28 10:30:19;;;;;;;14.43;13.93;;;2.90;99.90;;;;;;5077348;28;20490;-72
2023/11/28 10:32:46;;;;;;;14.70;14.20;;;2.90;99.90;;;;;;5076465;28;21016;-71
2023/11/28 10:35:13;;;;;;;14.30;13.80;;;2.90;99.90;;;;;;5071439;28;20496;-72
2023/11/28 10:37:42;;;;;;;14.70;14.20;;;2.90;99.90;;;;;;5074378;28;20460;-71
2023/11/28 10:40:13;;;;;;;14.47;13.97;;;2.80;99.90;;;;;;5078096;28;21421;-71
2023/11/28 10:42:41;;;;;;;13.83;13.33;;;2.80;99.90;;;;;;5075364;28;20455;-70
2023/11/28 10:45:10;;;;;;;14.47;13.97;;;2.70;99.90;;;;;;5073138;28;20472;-70
2023/11/28 10:47:39;;;;;;;14.20;13.70;;;2.80;99.90;;;;;;5076643;28;20463;-70
2023/11/28 10:50:08;;;;;;;14.73;14.23;;;2.80;99.90;;;;;;5068274;28;20512;-71
2023/11/28 10:52:37;;;;;;;14.47;13.97;;;2.70;99.90;;;;;;5074998;28;20458;-70
2023/11/28 10:55:08;;;;;;;14.70;14.20;;;2.70;99.90;;;;;;5074022;28;20455;-70
2023/11/28 10:57:41;;;;;;;14.57;14.07;;;2.80;99.90;;;;;;5076299;28;20944;-70
2023/11/28 11:00:11;;;;;;;14.23;13.73;;;2.80;99.90;;;;;;5074188;28;20503;-72
2023/11/28 11:02:40;;;;;;;14.50;14.00;;;2.80;99.90;;;;;;5071910;28;20503;-70
2023/11/28 11:05:09;;;;;;;14.50;14.00;;;2.90;99.90;;;;;;5074927;28;20465;-70
2023/11/28 11:07:37;;;;;;;14.40;13.90;;;2.70;99.90;;;;;;5071386;28;20463;-72
2023/11/28 11:10:08;;;;;;;14.60;14.10;;;2.70;99.90;;;;;;5071144;28;20481;-69
2023/11/28 11:12:37;;;;;;;14.23;13.73;;;2.70;99.90;;;;;;5072548;28;20466;-72
2023/11/28 11:15:13;;;;;;;14.60;14.10;;;2.80;99.90;;;;;;5075565;28;20893;-72
2023/11/28 11:17:50;;;;;;;14.87;14.37;;;3.00;99.90;;;;;;5072736;28;20914;-70
2023/11/28 11:20:18;;;;;;;14.70;14.20;;;3.10;99.90;;;;;;5073826;28;21114;-69
2023/11/28 11:22:51;;;;;;;14.60;14.10;;;3.10;99.90;;;;;;5071209;28;20477;-72
2023/11/28 11:25:28;;;;;;;14.63;14.13;;;3.10;99.90;;;;;;5075327;28;21050;-70
2023/11/28 11:27:55;;;;;;;14.90;14.40;;;3.10;99.90;;;;;;5077915;28;20879;-71
2023/11/28 11:30:33;;;;;;;14.57;14.07;;;3.20;99.90;;;;;;5076657;28;20620;-71
2023/11/28 11:33:01;;;;;;;15.20;14.60;;;3.30;99.90;;;;;;5076399;28;20467;-72
2023/11/28 11:35:31;;;;;;;14.80;14.30;;;3.40;99.90;;;;;;5076078;28;20764;-69
2023/11/28 11:38:01;;;;;;;14.73;14.23;;;3.30;99.90;;;;;;5072213;28;20570;-72
2023/11/28 11:40:28;;;;;;;15.10;14.57;;;3.20;99.90;;;;;;5071393;28;20463;-70
2023/11/28 11:42:55;;;;;;;15.30;14.70;;;3.30;99.90;;;;;;5074899;28;20468;-71
2023/11/28 11:45:22;;;;;;;15.20;14.60;;;3.10;99.90;;;;;;5074452;28;20462;-71
2023/11/28 11:47:49;;;;;;;15.10;14.60;;;3.10;99.90;;;;;;5076196;28;20462;-70
2023/11/28 11:50:19;;;;;;;14.93;14.43;;;3.00;99.90;;;;;;5072911;28;20574;-70
2023/11/28 11:52:47;;;;;;;15.33;14.73;;;3.00;99.90;;;;;;5075056;28;20554;-70
2023/11/28 11:55:15;;;;;;;14.67;14.17;;;3.10;99.90;;;;;;5068611;28;20469;-71
2023/11/28 11:57:44;;;;;;;15.43;14.83;;;3.00;99.90;;;;;;5073711;28;20519;-71
2023/11/28 12:00:13;;;;;;;15.47;14.87;;;2.90;99.90;;;;;;5074580;28;20454;-72
2023/11/28 12:02:41;;;;;;;15.30;14.70;;;2.80;99.90;;;;;;5073066;28;20455;-71
2023/11/28 12:05:09;;;;;;;15.50;14.90;;;2.80;99.90;;;;;;5074274;28;20553;-73
2023/11/28 12:07:38;;;;;;;15.50;14.90;;;2.80;99.90;;;;;;5073094;28;20465;-71
2023/11/28 12:10:09;;;;;;;15.00;14.50;;;3.00;99.90;;;;;;5075636;28;20491;-70
2023/11/28 12:12:36;;;;;;;14.80;14.30;;;3.30;99.90;;;;;;5068875;28;20473;-70
2023/11/28 12:15:04;;;;;;;14.47;13.97;;;3.60;99.90;;;;;;5073837;28;20466;-71
2023/11/28 12:17:31;;;;;;;15.00;14.50;;;3.70;99.90;;;;;;5075192;28;20835;-68
2023/11/28 12:19:58;;;;;;;14.93;14.43;;;4.00;99.90;;;;;;5077195;28;20894;-70
2023/11/28 12:22:25;;;;;;;14.87;14.37;;;4.30;99.90;;;;;;5074991;28;20636;-71
2023/11/28 12:24:53;;;;;;;15.30;14.70;;;4.40;99.90;;;;;;5078075;28;20569;-71
2023/11/28 12:27:20;;;;;;;14.47;13.97;;;4.50;99.90;;;;;;5080489;28;20542;-71
2023/11/28 12:29:49;;;;;;;15.30;14.70;;;4.70;99.90;;;;;;5073306;28;20461;-69
2023/11/28 12:32:16;;;;;;;14.70;14.20;;;5.10;99.90;;;;;;5077377;28;20455;-72
2023/11/28 12:34:44;;;;;;;14.77;14.27;;;5.50;99.90;;;;;;5080087;28;20554;-72
2023/11/28 12:37:11;;;;;;;15.37;14.77;;;5.40;99.90;;;;;;5080531;28;20467;-73
2023/11/28 12:39:40;;;;;;;15.47;14.87;;;5.40;99.90;;;;;;5080778;28;20505;-70
2023/11/28 12:42:09;;;;;;;15.20;14.60;;;5.30;99.90;;;;;;5075451;28;20465;-70